KECG/ECG METAR and TAF weather

Enter ICAO airport designator
Station Type Date Time Source
KECG METAR 2021/08/05 04:10 UTC NOAA

KECG 050410Z AUTO 35009KT 10SM BKN012 OVC020 22/21 A3003 RMK AO2 T02220206


Station Type Date Time Source
KECG Decoded METAR 2021/08/05 04:10 UTC NOAA

ELIZABETH CITY C/G REGN AIRPORT , NC, United States (KECG) 36-15N 076-10W 11M
Aug 05, 2021 - 12:10 AM EDT / 2021.08.05 0410 UTC
Wind: from the N (350 degrees) at 10 MPH (9 KT):0
Visibility: 10 mile(s):0
Sky conditions: overcast
Temperature: 72.0 F (22.2 C)
Dew Point: 69.1 F (20.6 C)
Relative Humidity: 90%
Pressure (altimeter): 30.03 in. Hg (1016 hPa)
ob: KECG 050410Z AUTO 35009KT 10SM BKN012 OVC020 22/21 A3003 RMK AO2 T02220206
cycle: 4

Station Type Date Time Source
KECG TAF 2021/08/04 20:48 UTC NOAA

TAF KECG 041940Z 0420/0518 04013G20KT P6SM VCSH BKN020 BKN050
FM050100 36009KT P6SM BKN010
FM051100 34005KT P6SM BKN020
FM051500 36006KT P6SM BKN025
FM051700 03005KT P6SM BKN040

Example: see airport list